createdAt,value
2022-09-28T00:01:50.578Z,55.06
2022-09-28T00:04:25.199Z,54.97
2022-09-28T00:06:53.693Z,55.07
2022-09-28T00:09:31.990Z,55.05
2022-09-28T00:15:38.877Z,55.13
2022-09-28T00:18:10.769Z,55.00
2022-09-28T00:20:44.243Z,55.14
2022-09-28T00:23:14.621Z,54.86
2022-09-28T00:25:44.101Z,54.97
2022-09-28T00:28:11.328Z,55.02
2022-09-28T00:30:38.629Z,54.95
2022-09-28T00:33:06.931Z,55.00
2022-09-28T00:35:48.100Z,55.04
2022-09-28T00:38:17.055Z,54.92
2022-09-28T00:40:48.692Z,54.88
2022-09-28T00:43:28.530Z,54.94
2022-09-28T00:46:03.187Z,54.76
2022-09-28T00:48:43.621Z,54.93
2022-09-28T00:54:04.347Z,54.85
2022-09-28T00:56:54.005Z,54.98
2022-09-28T00:59:34.141Z,54.86
2022-09-28T01:02:05.268Z,54.85
2022-09-28T01:04:36.305Z,54.86
2022-09-28T01:07:12.304Z,55.00
2022-09-28T01:09:45.292Z,54.98
2022-09-28T01:12:17.317Z,54.96
2022-09-28T01:14:49.558Z,54.84
2022-09-28T01:17:28.533Z,54.92
2022-09-28T01:20:29.302Z,54.88
2022-09-28T01:23:16.073Z,55.07
2022-09-28T01:29:50.140Z,54.70
2022-09-28T01:32:56.394Z,55.12
2022-09-28T01:35:43.502Z,54.97
2022-09-28T01:38:38.309Z,54.96
2022-09-28T01:41:13.826Z,55.10
2022-09-28T01:43:51.786Z,54.86
2022-09-28T01:46:33.213Z,55.13
2022-09-28T01:49:16.787Z,55.12
2022-09-28T01:51:55.466Z,55.02
2022-09-28T01:54:41.657Z,54.95
2022-09-28T01:57:22.565Z,55.04
2022-09-28T02:00:23.373Z,55.01
2022-09-28T02:03:28.205Z,54.94
2022-09-28T02:06:32.857Z,55.02
2022-09-28T02:09:10.182Z,55.07
2022-09-28T02:11:49.233Z,55.03
2022-09-28T02:14:27.023Z,55.10
2022-09-28T02:17:08.482Z,55.07
2022-09-28T02:19:41.787Z,55.02
2022-09-28T02:23:11.342Z,55.08
2022-09-28T02:25:49.236Z,55.08
2022-09-28T02:28:51.954Z,55.04
2022-09-28T02:31:21.183Z,55.02
2022-09-28T02:33:54.650Z,55.11
2022-09-28T02:36:27.123Z,55.06
2022-09-28T02:38:59.958Z,54.93
2022-09-28T02:42:12.952Z,54.86
2022-09-28T02:48:42.735Z,54.88
2022-09-28T02:51:35.082Z,55.01
2022-09-28T02:54:45.803Z,55.14
2022-09-28T02:57:55.416Z,54.98
2022-09-28T03:00:25.789Z,55.00
2022-09-28T03:03:49.070Z,55.05
2022-09-28T03:06:30.992Z,54.96
2022-09-28T03:09:04.334Z,55.02
2022-09-28T03:11:39.841Z,54.91
2022-09-28T03:14:28.980Z,54.96
2022-09-28T03:16:59.824Z,55.01
2022-09-28T03:22:15.260Z,55.12
2022-09-28T03:24:46.661Z,55.08
2022-09-28T03:27:21.455Z,55.12
2022-09-28T03:29:52.051Z,55.20
2022-09-28T03:32:31.879Z,55.07
2022-09-28T03:35:21.057Z,55.09
2022-09-28T03:37:52.373Z,55.14
2022-09-28T03:43:05.883Z,55.09
2022-09-28T03:45:53.669Z,55.10
2022-09-28T03:48:31.229Z,55.10
2022-09-28T03:51:08.603Z,55.04
2022-09-28T03:53:38.060Z,55.08
2022-09-28T03:56:16.920Z,55.08
2022-09-28T03:58:49.004Z,55.02
2022-09-28T04:01:18.029Z,55.15
2022-09-28T04:03:57.593Z,55.18
2022-09-28T04:06:33.327Z,55.08
2022-09-28T04:09:02.233Z,55.19
2022-09-28T04:11:59.496Z,55.15
2022-09-28T04:14:22.803Z,55.20
2022-09-28T04:16:59.268Z,55.20
2022-09-28T04:19:42.589Z,55.18
2022-09-28T04:22:23.465Z,55.10
2022-09-28T04:25:01.025Z,55.11
2022-09-28T04:27:48.766Z,55.13
2022-09-28T04:30:19.223Z,55.12
2022-09-28T04:33:01.262Z,55.18
2022-09-28T04:35:39.013Z,55.22
2022-09-28T04:38:08.508Z,55.16
2022-09-28T04:40:36.952Z,55.22
2022-09-28T04:43:30.085Z,55.20
2022-09-28T04:46:09.850Z,55.05
2022-09-28T04:48:46.831Z,55.14
2022-09-28T04:51:37.850Z,55.03
2022-09-28T04:54:08.492Z,55.16
2022-09-28T04:56:59.993Z,55.17
2022-09-28T04:59:33.293Z,55.10
2022-09-28T05:02:26.996Z,54.99
2022-09-28T05:05:16.079Z,55.00
2022-09-28T05:08:24.124Z,55.09
2022-09-28T05:11:01.281Z,55.10
2022-09-28T05:13:31.078Z,55.10
2022-09-28T05:16:16.597Z,55.08
2022-09-28T05:19:02.820Z,55.05
2022-09-28T05:21:34.895Z,54.98
2022-09-28T05:24:07.917Z,55.07
2022-09-28T05:26:38.727Z,55.13
2022-09-28T05:32:45.017Z,55.22
2022-09-28T05:35:21.367Z,55.15
2022-09-28T05:37:49.610Z,55.19
2022-09-28T05:40:17.079Z,55.05
2022-09-28T05:42:44.129Z,55.09
2022-09-28T05:45:12.877Z,55.04
2022-09-28T05:47:43.432Z,55.15
2022-09-28T05:50:12.614Z,55.02
2022-09-28T05:52:40.696Z,55.04
2022-09-28T05:55:09.301Z,54.88
2022-09-28T05:57:36.327Z,54.67
2022-09-28T06:00:09.135Z,54.57
2022-09-28T06:02:56.291Z,54.46
2022-09-28T06:05:23.895Z,54.37
2022-09-28T06:07:50.809Z,54.18
2022-09-28T06:10:17.778Z,53.87
2022-09-28T06:12:45.755Z,53.69
2022-09-28T06:15:15.736Z,53.36
2022-09-28T06:17:44.021Z,53.21
2022-09-28T06:20:35.825Z,53.12
2022-09-28T06:23:14.046Z,52.97
2022-09-28T06:25:41.380Z,52.91
2022-09-28T06:28:13.913Z,52.80
2022-09-28T06:30:42.862Z,52.61
2022-09-28T06:33:14.606Z,52.57
2022-09-28T06:35:42.493Z,52.41
2022-09-28T06:38:09.639Z,52.43
2022-09-28T06:40:38.553Z,52.24
2022-09-28T06:43:12.673Z,52.21
2022-09-28T06:45:58.413Z,51.91
2022-09-28T06:48:25.562Z,52.02
2022-09-28T06:50:52.655Z,52.01
2022-09-28T06:53:34.203Z,51.73
2022-09-28T06:56:19.660Z,51.63
2022-09-28T06:58:46.800Z,51.56
2022-09-28T07:01:14.204Z,51.47
2022-09-28T07:03:58.122Z,51.27
2022-09-28T07:06:48.183Z,51.09
2022-09-28T07:09:49.371Z,51.19
2022-09-28T07:12:27.818Z,50.93
2022-09-28T07:15:04.005Z,50.93
2022-09-28T07:17:36.124Z,50.99
2022-09-28T07:20:17.225Z,50.95
2022-09-28T07:22:48.085Z,50.82
2022-09-28T07:25:19.191Z,50.54
2022-09-28T07:27:47.331Z,50.78
2022-09-28T07:30:35.740Z,50.73
2022-09-28T07:33:14.620Z,50.97
2022-09-28T07:36:06.877Z,50.89
2022-09-28T07:38:34.541Z,50.93
2022-09-28T07:41:14.437Z,51.11
2022-09-28T07:43:50.008Z,51.41
2022-09-28T07:46:17.786Z,51.43
2022-09-28T07:48:54.998Z,51.76
2022-09-28T07:51:31.132Z,51.70
2022-09-28T07:54:18.100Z,51.73
2022-09-28T07:57:21.625Z,51.70
2022-09-28T08:00:00.743Z,51.76
2022-09-28T08:02:44.212Z,51.72
2022-09-28T08:05:12.914Z,51.78
2022-09-28T08:07:40.060Z,51.87
2022-09-28T08:10:09.259Z,51.82
2022-09-28T08:12:47.434Z,51.94
2022-09-28T08:15:36.301Z,52.04
2022-09-28T08:18:11.465Z,52.20
2022-09-28T08:20:57.001Z,52.10
2022-09-28T08:23:24.153Z,52.06
2022-09-28T08:25:56.700Z,52.03
2022-09-28T08:28:24.844Z,52.09
2022-09-28T08:30:55.309Z,52.01
2022-09-28T08:33:31.364Z,52.06
2022-09-28T08:36:16.825Z,52.06
2022-09-28T08:39:01.853Z,52.11
2022-09-28T08:42:21.218Z,52.16
2022-09-28T08:45:19.875Z,52.11
2022-09-28T08:48:56.176Z,52.04
2022-09-28T08:52:00.280Z,52.16
2022-09-28T08:55:06.226Z,52.24
2022-09-28T08:58:02.524Z,52.21
2022-09-28T09:00:49.156Z,52.26
2022-09-28T09:03:25.596Z,52.23
2022-09-28T09:06:48.289Z,52.34
2022-09-28T09:10:22.932Z,52.36
2022-09-28T09:12:54.831Z,52.38
2022-09-28T09:15:50.805Z,52.35
2022-09-28T09:18:45.487Z,52.54
2022-09-28T09:22:02.215Z,52.52
2022-09-28T09:24:38.940Z,52.55
2022-09-28T09:27:14.476Z,52.51
2022-09-28T09:29:41.415Z,52.48
2022-09-28T09:33:07.128Z,52.72
2022-09-28T09:35:59.177Z,52.58
2022-09-28T09:38:55.356Z,52.58
2022-09-28T09:41:53.259Z,52.40
2022-09-28T09:44:59.980Z,52.18
2022-09-28T09:48:07.895Z,51.99
2022-09-28T09:50:40.768Z,51.90
2022-09-28T09:53:27.053Z,51.76
2022-09-28T09:56:00.148Z,51.52
2022-09-28T09:58:37.093Z,51.57
2022-09-28T10:01:39.399Z,51.61
2022-09-28T10:04:31.120Z,51.47
2022-09-28T10:07:04.704Z,51.30
2022-09-28T10:09:39.235Z,51.37
2022-09-28T10:12:22.984Z,51.31
2022-09-28T10:14:50.764Z,51.19
2022-09-28T10:17:20.206Z,51.22
2022-09-28T10:20:06.822Z,50.95
2022-09-28T10:22:56.957Z,50.85
2022-09-28T10:25:25.392Z,50.60
2022-09-28T10:27:52.848Z,50.33
2022-09-28T10:30:25.506Z,50.30
2022-09-28T10:32:59.153Z,50.19
2022-09-28T10:35:39.647Z,50.38
2022-09-28T10:38:12.360Z,50.51
2022-09-28T10:40:48.170Z,50.79
2022-09-28T10:43:36.022Z,51.21
2022-09-28T10:46:08.392Z,51.67
2022-09-28T10:48:59.761Z,52.33
2022-09-28T10:51:51.787Z,53.32
2022-09-28T10:54:28.450Z,54.09
2022-09-28T10:56:59.124Z,54.70
2022-09-28T10:59:53.351Z,54.97
2022-09-28T11:02:38.351Z,54.97
2022-09-28T11:05:22.259Z,55.32
2022-09-28T11:07:52.567Z,55.31
2022-09-28T11:10:29.109Z,55.02
2022-09-28T11:13:01.051Z,54.58
2022-09-28T11:15:33.665Z,54.33
2022-09-28T11:18:26.117Z,53.84
2022-09-28T11:20:53.097Z,53.72
2022-09-28T11:23:26.695Z,53.37
2022-09-28T11:26:04.629Z,53.24
2022-09-28T11:28:34.619Z,52.89
2022-09-28T11:31:09.125Z,52.69
2022-09-28T11:34:13.743Z,52.61
2022-09-28T11:37:13.732Z,52.39
2022-09-28T11:40:05.734Z,52.22
2022-09-28T11:42:49.282Z,52.03
2022-09-28T11:45:16.204Z,51.98
2022-09-28T11:48:02.876Z,52.00
2022-09-28T11:50:42.523Z,51.75
2022-09-28T11:53:26.648Z,51.57
2022-09-28T11:56:15.982Z,51.40
2022-09-28T11:59:05.891Z,51.54
2022-09-28T12:01:47.004Z,51.43
2022-09-28T12:04:32.550Z,51.17
2022-09-28T12:07:25.250Z,51.30
2022-09-28T12:09:58.132Z,50.97
2022-09-28T12:12:32.834Z,51.01
2022-09-28T12:16:11.531Z,50.80
2022-09-28T12:19:08.312Z,50.85
2022-09-28T12:21:42.730Z,50.59
2022-09-28T12:24:21.815Z,50.60
2022-09-28T12:27:05.105Z,50.56
2022-09-28T12:29:47.578Z,50.36
2022-09-28T12:32:17.252Z,50.34
2022-09-28T12:34:44.509Z,50.22
2022-09-28T12:37:27.437Z,50.12
2022-09-28T12:40:06.787Z,49.85
2022-09-28T12:42:46.184Z,49.97
2022-09-28T12:45:38.642Z,50.24
2022-09-28T12:48:32.349Z,50.04
2022-09-28T12:51:18.523Z,50.02
2022-09-28T12:54:23.103Z,50.15
2022-09-28T12:57:03.390Z,49.94
2022-09-28T12:59:39.347Z,49.58
2022-09-28T13:02:26.205Z,49.50
2022-09-28T13:05:12.448Z,49.76
2022-09-28T13:07:50.169Z,49.51
2022-09-28T13:10:34.063Z,49.43
2022-09-28T13:13:23.370Z,49.59
2022-09-28T13:16:08.174Z,49.55
2022-09-28T13:18:48.348Z,49.27
2022-09-28T13:21:30.413Z,49.24
2022-09-28T13:24:14.361Z,49.26
2022-09-28T13:26:48.259Z,49.27
2022-09-28T13:29:18.627Z,49.48
2022-09-28T13:31:50.708Z,49.46
2022-09-28T13:34:22.696Z,49.40
2022-09-28T13:37:28.519Z,49.43
2022-09-28T13:39:58.464Z,49.64
2022-09-28T13:42:55.343Z,49.80
2022-09-28T13:45:38.552Z,49.76
2022-09-28T13:48:14.773Z,49.73
2022-09-28T13:50:53.794Z,49.80
2022-09-28T13:53:35.798Z,49.92
2022-09-28T13:56:27.219Z,49.93
2022-09-28T13:59:01.556Z,50.08
2022-09-28T14:01:42.739Z,50.16
2022-09-28T14:04:20.637Z,50.19
2022-09-28T14:06:55.960Z,50.25
2022-09-28T14:09:27.499Z,50.31
2022-09-28T14:12:03.196Z,50.45
2022-09-28T14:14:47.433Z,50.32
2022-09-28T14:17:26.074Z,50.38
2022-09-28T14:20:08.013Z,50.54
2022-09-28T14:22:58.032Z,50.58
2022-09-28T14:25:28.358Z,50.75
2022-09-28T14:28:01.576Z,50.73
2022-09-28T14:30:53.728Z,50.73
2022-09-28T14:33:20.644Z,50.82
2022-09-28T14:35:58.374Z,50.94
2022-09-28T14:39:08.658Z,50.99
2022-09-28T14:41:39.782Z,51.07
2022-09-28T14:44:11.334Z,50.88
2022-09-28T14:46:45.964Z,51.08
2022-09-28T14:49:19.770Z,51.19
2022-09-28T14:51:58.538Z,51.19
2022-09-28T14:54:38.537Z,51.09
2022-09-28T14:57:15.497Z,51.26
2022-09-28T14:59:46.396Z,51.26
2022-09-28T15:02:29.903Z,51.18
2022-09-28T15:05:09.767Z,51.00
2022-09-28T15:07:46.248Z,50.97
2022-09-28T15:10:27.652Z,50.81
2022-09-28T15:12:56.956Z,50.83
2022-09-28T15:15:40.944Z,50.58
2022-09-28T15:18:36.671Z,50.62
2022-09-28T15:21:04.289Z,50.46
2022-09-28T15:23:39.378Z,50.50
2022-09-28T15:26:08.614Z,50.68
2022-09-28T15:28:39.528Z,50.54
2022-09-28T15:31:06.541Z,50.44
2022-09-28T15:33:53.426Z,50.39
2022-09-28T15:36:24.539Z,50.21
2022-09-28T15:39:01.800Z,50.16
2022-09-28T15:41:29.360Z,50.22
2022-09-28T15:44:36.699Z,50.21
2022-09-28T15:47:25.100Z,50.16
2022-09-28T15:50:05.003Z,50.07
2022-09-28T15:52:44.941Z,50.03
2022-09-28T15:55:24.320Z,49.99
2022-09-28T15:58:04.072Z,50.02
2022-09-28T16:00:31.855Z,50.09
2022-09-28T16:03:03.808Z,50.08
2022-09-28T16:05:48.442Z,49.96
2022-09-28T16:08:27.436Z,50.11
2022-09-28T16:11:04.873Z,50.21
2022-09-28T16:13:32.265Z,50.10
2022-09-28T16:16:00.437Z,50.13
2022-09-28T16:18:29.614Z,50.08
2022-09-28T16:21:20.208Z,50.25
2022-09-28T16:23:52.724Z,50.17
2022-09-28T16:26:32.279Z,50.14
2022-09-28T16:29:00.558Z,50.17
2022-09-28T16:31:34.802Z,50.06
2022-09-28T16:34:20.309Z,50.11
2022-09-28T16:36:49.342Z,50.06
2022-09-28T16:39:18.353Z,50.31
2022-09-28T16:41:52.289Z,50.25
2022-09-28T16:44:24.153Z,50.33
2022-09-28T16:46:55.840Z,50.35
2022-09-28T16:49:25.860Z,50.22
2022-09-28T16:51:53.811Z,50.32
2022-09-28T16:54:42.049Z,50.51
2022-09-28T16:57:12.741Z,50.60
2022-09-28T16:59:39.907Z,50.81
2022-09-28T17:05:13.682Z,51.03
2022-09-28T17:07:40.791Z,51.04
2022-09-28T17:10:21.901Z,51.05
2022-09-28T17:12:48.942Z,51.39
2022-09-28T17:15:18.790Z,51.34
2022-09-28T17:17:47.248Z,51.52
2022-09-28T17:20:27.464Z,51.56
2022-09-28T17:22:54.409Z,51.67
2022-09-28T17:25:24.281Z,51.65
2022-09-28T17:27:55.528Z,51.67
2022-09-28T17:30:23.780Z,51.68
2022-09-28T17:32:53.835Z,51.84
2022-09-28T17:35:25.457Z,51.91
2022-09-28T17:37:52.754Z,51.97
2022-09-28T17:40:22.841Z,52.00
2022-09-28T17:42:49.881Z,52.02
2022-09-28T17:45:18.341Z,52.02
2022-09-28T17:47:47.259Z,52.07
2022-09-28T17:50:23.218Z,52.27
2022-09-28T17:52:56.546Z,52.26
2022-09-28T17:55:32.485Z,52.32
2022-09-28T17:58:01.567Z,52.45
2022-09-28T18:00:30.724Z,52.39
2022-09-28T18:02:58.712Z,52.44
2022-09-28T18:05:31.371Z,52.41
2022-09-28T18:07:58.948Z,52.40
2022-09-28T18:10:29.204Z,52.57
2022-09-28T18:12:57.818Z,52.52
2022-09-28T18:15:24.718Z,52.43
2022-09-28T18:17:51.963Z,52.43
2022-09-28T18:20:20.742Z,52.63
2022-09-28T18:22:49.486Z,52.65
2022-09-28T18:25:18.949Z,52.79
2022-09-28T18:27:45.983Z,52.75
2022-09-28T18:30:15.204Z,52.84
2022-09-28T18:32:44.285Z,52.99
2022-09-28T18:35:13.578Z,52.98
2022-09-28T18:37:41.095Z,52.93
2022-09-28T18:40:13.078Z,53.13
2022-09-28T18:42:40.932Z,53.00
2022-09-28T18:45:15.363Z,52.97
2022-09-28T18:47:42.583Z,53.05
2022-09-28T18:50:17.329Z,53.08
2022-09-28T18:52:45.392Z,53.00
2022-09-28T18:55:13.149Z,53.23
2022-09-28T18:57:43.557Z,53.05
2022-09-28T19:00:17.265Z,53.13
2022-09-28T19:02:45.763Z,53.20
2022-09-28T19:05:14.048Z,53.13
2022-09-28T19:07:44.545Z,53.29
2022-09-28T19:10:12.624Z,53.19
2022-09-28T19:12:46.270Z,53.06
2022-09-28T19:15:15.275Z,53.28
2022-09-28T19:17:46.989Z,53.31
2022-09-28T19:20:14.331Z,53.28
2022-09-28T19:22:45.334Z,53.31
2022-09-28T19:25:14.933Z,53.36
2022-09-28T19:27:42.050Z,53.50
2022-09-28T19:30:13.053Z,53.45
2022-09-28T19:32:44.935Z,53.45
2022-09-28T19:35:14.010Z,53.48
2022-09-28T19:37:44.546Z,53.49
2022-09-28T19:40:12.573Z,53.59
2022-09-28T19:42:40.918Z,53.50
2022-09-28T19:45:11.016Z,53.82
2022-09-28T19:47:44.023Z,53.66
2022-09-28T19:50:11.543Z,53.89
2022-09-28T19:52:41.709Z,53.88
2022-09-28T19:55:12.485Z,53.94
2022-09-28T19:57:42.494Z,54.22
2022-09-28T20:00:11.770Z,53.94
2022-09-28T20:02:44.094Z,53.94
2022-09-28T20:05:12.008Z,54.09
2022-09-28T20:07:42.166Z,54.23
2022-09-28T20:10:12.341Z,54.10
2022-09-28T20:12:44.427Z,54.00
2022-09-28T20:15:13.771Z,54.21
2022-09-28T20:17:42.796Z,54.03
2022-09-28T20:20:10.143Z,54.21
2022-09-28T20:22:38.708Z,54.12
2022-09-28T20:25:06.525Z,54.11
2022-09-28T20:27:35.406Z,54.21
2022-09-28T20:30:06.838Z,54.12
2022-09-28T20:32:37.579Z,54.12
2022-09-28T20:35:07.137Z,54.14
2022-09-28T20:37:36.083Z,54.32
2022-09-28T20:40:07.682Z,54.24
2022-09-28T20:42:37.652Z,54.27
2022-09-28T20:45:07.391Z,54.26
2022-09-28T20:47:35.644Z,54.26
2022-09-28T20:50:06.075Z,54.32
2022-09-28T20:52:33.050Z,54.26
2022-09-28T20:55:02.230Z,54.29
2022-09-28T20:57:31.363Z,54.15
2022-09-28T20:59:59.500Z,54.23
2022-09-28T21:02:28.795Z,54.16
2022-09-28T21:04:56.261Z,54.16
2022-09-28T21:07:23.388Z,54.06
2022-09-28T21:09:50.783Z,54.25
2022-09-28T21:12:20.125Z,54.14
2022-09-28T21:14:47.869Z,54.04
2022-09-28T21:17:15.413Z,54.24
2022-09-28T21:19:43.425Z,54.15
2022-09-28T21:22:16.379Z,53.95
2022-09-28T21:24:44.044Z,54.05
2022-09-28T21:27:13.813Z,54.02
2022-09-28T21:29:41.957Z,53.93
2022-09-28T21:32:09.529Z,53.99
2022-09-28T21:34:39.562Z,54.01
2022-09-28T21:37:08.244Z,54.18
2022-09-28T21:39:35.681Z,54.11
2022-09-28T21:42:03.614Z,54.14
2022-09-28T21:44:31.115Z,54.09
2022-09-28T21:46:58.933Z,53.98
2022-09-28T21:49:26.152Z,54.08
2022-09-28T21:51:53.406Z,53.97
2022-09-28T21:54:21.469Z,54.05
2022-09-28T21:56:48.838Z,53.95
2022-09-28T21:59:15.997Z,53.99
2022-09-28T22:01:44.478Z,54.04
2022-09-28T22:04:11.711Z,54.04
2022-09-28T22:06:39.113Z,54.14
2022-09-28T22:09:06.124Z,54.08
2022-09-28T22:11:33.051Z,54.03
2022-09-28T22:14:00.748Z,54.08
2022-09-28T22:16:30.169Z,54.05
2022-09-28T22:18:58.056Z,54.07
2022-09-28T22:21:33.470Z,54.07
2022-09-28T22:24:02.928Z,53.99
2022-09-28T22:26:31.940Z,53.98
2022-09-28T22:29:04.431Z,53.99
2022-09-28T22:31:34.037Z,53.95
2022-09-28T22:34:02.157Z,53.98
2022-09-28T22:36:30.038Z,54.10
2022-09-28T22:38:57.999Z,54.08
2022-09-28T22:41:25.491Z,54.03
2022-09-28T22:43:53.883Z,54.10
2022-09-28T22:46:23.624Z,54.15
2022-09-28T22:48:53.243Z,54.15
2022-09-28T22:51:21.050Z,54.13
2022-09-28T22:53:48.077Z,54.16
2022-09-28T22:56:18.767Z,54.08
2022-09-28T22:58:46.634Z,54.07
2022-09-28T23:01:15.977Z,54.11
2022-09-28T23:03:44.861Z,54.02
2022-09-28T23:06:14.233Z,54.06
2022-09-28T23:08:41.163Z,54.03
2022-09-28T23:11:08.768Z,54.05
2022-09-28T23:13:35.757Z,54.01
2022-09-28T23:16:11.413Z,54.13
2022-09-28T23:18:42.632Z,54.06
2022-09-28T23:21:17.828Z,54.04
2022-09-28T23:23:46.367Z,54.02
2022-09-28T23:26:18.879Z,53.99
2022-09-28T23:28:46.129Z,53.78
2022-09-28T23:31:23.256Z,53.88
2022-09-28T23:33:51.035Z,53.83
2022-09-28T23:36:21.277Z,53.80
2022-09-28T23:38:48.267Z,53.76
2022-09-28T23:41:15.299Z,53.78
2022-09-28T23:43:42.319Z,53.71
2022-09-28T23:46:09.326Z,53.73
2022-09-28T23:48:36.562Z,53.67
2022-09-28T23:51:03.777Z,53.69
2022-09-28T23:53:32.422Z,53.69
2022-09-28T23:55:59.713Z,53.80
2022-09-28T23:58:27.761Z,53.80
